CheckWX is a tool to help pilots better visualize weather data.  It is not intended as a substitute for an official pre-flight weather briefing.

01:22:55 UTC

KLOR METAR
Lowe AHP (Fort Rucker) Heliport
Fort Rucker Ozark, Alabama, USA
Current

16 mins ago

KLOR 150107Z AUTO M 2SM -RA BR FEW002 OVC044 22/22 A3008 RMK AO2 VIS 1 1/4V2 SLP168 $
Observed
Oct-15 @ 01:07 UTC
Visibility
2 SM
Flight Rules
IFR
Conditions
Light Rain, Mist
Cloud Levels
  • Few at 200' AGL
  • Overcast at 4,400' AGL
Temperature
22°C / 72°F
Dewpoint
22°C / 72°F
Humidity
100%
Altimeter
30.08" Hg
Pressure
1018.62 hPa
Previous

25 mins ago

KLOR 150058Z AUTO 12003KT 1 1/2SM RA BR FEW002 OVC044 23/22 A3007 RMK AO2 VIS 1 1/2V8 RAE50RAB52 SLP164 P0004
Observed
Oct-15 @ 00:58 UTC
Wind
  • 120° at 3 KTS
Visibility
1 1/2 SM
Flight Rules
IFR
Conditions
Rain, Mist
Cloud Levels
  • Few at 200' AGL
  • Overcast at 4,400' AGL
Temperature
23°C / 73°F
Dewpoint
22°C / 72°F
Humidity
94%
Altimeter
30.07" Hg
Pressure
1018.32 hPa
Current Rain
0.04"
Previous

38 mins ago

KLOR 150045Z AUTO 26003KT 7SM -RA BKN038 OVC048 23/22 A3008 RMK AO2 SLP167
Observed
Oct-15 @ 00:45 UTC
Wind
  • 260° at 3 KTS
Visibility
7 SM
Flight Rules
VFR
Conditions
Light Rain
Cloud Levels
  • Broken at 3,800' AGL
  • Overcast at 4,800' AGL
Temperature
23°C / 73°F
Dewpoint
22°C / 72°F
Humidity
94%
Altimeter
30.08" Hg
Pressure
1018.62 hPa